sensor_id;sensor_type;location;lat;lon;timestamp;pressure;altitude;pressure_sealevel;temperature;humidity
47716;BME280;33476;50.984;3.538;2022-07-11T00:02:05;102507.28;;;20.98;54.76
47716;BME280;33476;50.984;3.538;2022-07-11T00:04:32;102500.25;;;20.97;54.90
47716;BME280;33476;50.984;3.538;2022-07-11T00:06:58;102498.56;;;20.96;54.84
47716;BME280;33476;50.984;3.538;2022-07-11T00:09:24;102502.16;;;20.95;55.04
47716;BME280;33476;50.984;3.538;2022-07-11T00:11:50;102507.59;;;20.94;54.72
47716;BME280;33476;50.984;3.538;2022-07-11T00:14:16;102501.72;;;20.89;54.96
47716;BME280;33476;50.984;3.538;2022-07-11T00:16:42;102495.81;;;20.84;55.01
47716;BME280;33476;50.984;3.538;2022-07-11T00:19:08;102487.13;;;20.82;54.99
47716;BME280;33476;50.984;3.538;2022-07-11T00:21:33;102497.94;;;20.79;55.00
47716;BME280;33476;50.984;3.538;2022-07-11T00:24:00;102494.81;;;20.72;55.08
47716;BME280;33476;50.984;3.538;2022-07-11T00:26:25;102499.56;;;20.67;55.19
47716;BME280;33476;50.984;3.538;2022-07-11T00:28:51;102494.47;;;20.64;55.10
47716;BME280;33476;50.984;3.538;2022-07-11T00:31:16;102506.22;;;20.60;55.24
47716;BME280;33476;50.984;3.538;2022-07-11T00:33:42;102495.81;;;20.57;55.60
47716;BME280;33476;50.984;3.538;2022-07-11T00:36:08;102498.56;;;20.55;55.69
47716;BME280;33476;50.984;3.538;2022-07-11T00:38:33;102501.13;;;20.57;55.46
47716;BME280;33476;50.984;3.538;2022-07-11T00:40:58;102496.00;;;20.54;55.32
47716;BME280;33476;50.984;3.538;2022-07-11T00:43:37;102501.91;;;20.44;55.75
47716;BME280;33476;50.984;3.538;2022-07-11T00:46:07;102499.16;;;20.46;55.87
47716;BME280;33476;50.984;3.538;2022-07-11T00:48:34;102500.16;;;20.43;55.75
47716;BME280;33476;50.984;3.538;2022-07-11T00:51:02;102498.66;;;20.39;55.94
47716;BME280;33476;50.984;3.538;2022-07-11T00:53:29;102495.25;;;20.37;55.87
47716;BME280;33476;50.984;3.538;2022-07-11T00:55:55;102498.00;;;20.36;55.77
47716;BME280;33476;50.984;3.538;2022-07-11T00:58:21;102493.72;;;20.33;55.65
47716;BME280;33476;50.984;3.538;2022-07-11T01:00:47;102497.22;;;20.34;55.77
47716;BME280;33476;50.984;3.538;2022-07-11T01:03:13;102496.56;;;20.30;55.93
47716;BME280;33476;50.984;3.538;2022-07-11T01:05:39;102500.28;;;20.28;56.10
47716;BME280;33476;50.984;3.538;2022-07-11T01:08:05;102497.69;;;20.26;56.37
47716;BME280;33476;50.984;3.538;2022-07-11T01:10:31;102486.31;;;20.24;56.23
47716;BME280;33476;50.984;3.538;2022-07-11T01:12:57;102480.16;;;20.24;56.24
47716;BME280;33476;50.984;3.538;2022-07-11T01:15:23;102481.88;;;20.25;56.31
47716;BME280;33476;50.984;3.538;2022-07-11T01:17:49;102490.88;;;20.22;56.17
47716;BME280;33476;50.984;3.538;2022-07-11T01:20:15;102484.91;;;20.18;56.44
47716;BME280;33476;50.984;3.538;2022-07-11T01:22:47;102483.59;;;20.11;56.81
47716;BME280;33476;50.984;3.538;2022-07-11T01:25:16;102480.00;;;20.12;56.73
47716;BME280;33476;50.984;3.538;2022-07-11T01:27:59;102489.75;;;20.12;56.45
47716;BME280;33476;50.984;3.538;2022-07-11T01:30:26;102481.13;;;20.08;56.80
47716;BME280;33476;50.984;3.538;2022-07-11T01:32:52;102476.75;;;20.07;56.94
47716;BME280;33476;50.984;3.538;2022-07-11T01:35:19;102486.63;;;20.05;56.70
47716;BME280;33476;50.984;3.538;2022-07-11T01:37:45;102481.59;;;20.01;56.94
47716;BME280;33476;50.984;3.538;2022-07-11T01:40:10;102477.53;;;19.95;57.03
47716;BME280;33476;50.984;3.538;2022-07-11T01:42:36;102477.69;;;19.92;56.79
47716;BME280;33476;50.984;3.538;2022-07-11T01:45:02;102470.88;;;19.88;56.99
47716;BME280;33476;50.984;3.538;2022-07-11T01:47:28;102471.84;;;19.87;56.96
47716;BME280;33476;50.984;3.538;2022-07-11T01:49:53;102474.50;;;19.87;56.90
47716;BME280;33476;50.984;3.538;2022-07-11T01:52:20;102465.69;;;19.86;56.74
47716;BME280;33476;50.984;3.538;2022-07-11T01:54:45;102464.16;;;19.82;56.89
47716;BME280;33476;50.984;3.538;2022-07-11T01:57:11;102460.84;;;19.79;56.92
47716;BME280;33476;50.984;3.538;2022-07-11T01:59:36;102459.16;;;19.78;57.16
47716;BME280;33476;50.984;3.538;2022-07-11T02:02:02;102462.81;;;19.75;57.05
47716;BME280;33476;50.984;3.538;2022-07-11T02:04:27;102470.00;;;19.73;57.19
47716;BME280;33476;50.984;3.538;2022-07-11T02:06:53;102463.97;;;19.71;56.92
47716;BME280;33476;50.984;3.538;2022-07-11T02:09:18;102468.47;;;19.69;57.27
47716;BME280;33476;50.984;3.538;2022-07-11T02:11:44;102468.56;;;19.68;57.26
47716;BME280;33476;50.984;3.538;2022-07-11T02:14:09;102467.91;;;19.64;57.18
47716;BME280;33476;50.984;3.538;2022-07-11T02:16:34;102467.06;;;19.63;57.28
47716;BME280;33476;50.984;3.538;2022-07-11T02:19:00;102460.13;;;19.61;57.61
47716;BME280;33476;50.984;3.538;2022-07-11T02:21:25;102459.28;;;19.60;57.88
47716;BME280;33476;50.984;3.538;2022-07-11T02:23:51;102460.22;;;19.59;57.70
47716;BME280;33476;50.984;3.538;2022-07-11T02:26:16;102458.53;;;19.58;57.49
47716;BME280;33476;50.984;3.538;2022-07-11T02:28:41;102461.44;;;19.54;57.49
47716;BME280;33476;50.984;3.538;2022-07-11T02:31:07;102458.94;;;19.51;57.43
47716;BME280;33476;50.984;3.538;2022-07-11T02:33:33;102462.00;;;19.45;57.71
47716;BME280;33476;50.984;3.538;2022-07-11T02:35:58;102466.50;;;19.43;57.99
47716;BME280;33476;50.984;3.538;2022-07-11T02:38:25;102457.69;;;19.42;57.91
47716;BME280;33476;50.984;3.538;2022-07-11T02:40:50;102456.75;;;19.43;57.73
47716;BME280;33476;50.984;3.538;2022-07-11T02:43:15;102447.19;;;19.41;58.10
47716;BME280;33476;50.984;3.538;2022-07-11T02:45:41;102456.09;;;19.40;58.07
47716;BME280;33476;50.984;3.538;2022-07-11T02:48:06;102448.34;;;19.36;57.99
47716;BME280;33476;50.984;3.538;2022-07-11T02:50:31;102452.94;;;19.33;57.89
47716;BME280;33476;50.984;3.538;2022-07-11T02:52:57;102448.78;;;19.29;58.02
47716;BME280;33476;50.984;3.538;2022-07-11T02:55:22;102455.00;;;19.28;58.00
47716;BME280;33476;50.984;3.538;2022-07-11T02:57:48;102454.25;;;19.26;58.13
47716;BME280;33476;50.984;3.538;2022-07-11T03:00:16;102455.38;;;19.22;58.51
47716;BME280;33476;50.984;3.538;2022-07-11T03:02:41;102459.72;;;19.23;58.42
47716;BME280;33476;50.984;3.538;2022-07-11T03:05:08;102461.63;;;19.21;58.03
47716;BME280;33476;50.984;3.538;2022-07-11T03:07:33;102454.78;;;19.17;58.25
47716;BME280;33476;50.984;3.538;2022-07-11T03:09:59;102453.94;;;19.16;58.40
47716;BME280;33476;50.984;3.538;2022-07-11T03:12:24;102456.69;;;19.15;58.19
47716;BME280;33476;50.984;3.538;2022-07-11T03:14:49;102458.38;;;19.16;57.99
47716;BME280;33476;50.984;3.538;2022-07-11T03:17:18;102455.31;;;19.07;58.05
47716;BME280;33476;50.984;3.538;2022-07-11T03:19:44;102454.38;;;19.08;58.03
47716;BME280;33476;50.984;3.538;2022-07-11T03:22:10;102458.06;;;19.06;57.92
47716;BME280;33476;50.984;3.538;2022-07-11T03:24:35;102451.91;;;19.05;57.91
47716;BME280;33476;50.984;3.538;2022-07-11T03:27:02;102456.53;;;19.02;58.26
47716;BME280;33476;50.984;3.538;2022-07-11T03:29:27;102459.25;;;19.00;58.53
47716;BME280;33476;50.984;3.538;2022-07-11T03:31:52;102457.56;;;18.99;58.74
47716;BME280;33476;50.984;3.538;2022-07-11T03:34:18;102462.84;;;18.99;58.81
47716;BME280;33476;50.984;3.538;2022-07-11T03:36:43;102459.25;;;19.00;58.36
47716;BME280;33476;50.984;3.538;2022-07-11T03:39:12;102460.41;;;18.96;58.40
47716;BME280;33476;50.984;3.538;2022-07-11T03:41:37;102459.53;;;18.96;58.24
47716;BME280;33476;50.984;3.538;2022-07-11T03:44:03;102458.94;;;18.91;58.03
47716;BME280;33476;50.984;3.538;2022-07-11T03:46:28;102463.38;;;18.90;58.54
47716;BME280;33476;50.984;3.538;2022-07-11T03:48:54;102457.25;;;18.90;58.52
47716;BME280;33476;50.984;3.538;2022-07-11T03:51:19;102459.88;;;18.90;58.76
47716;BME280;33476;50.984;3.538;2022-07-11T03:53:44;102462.63;;;18.88;58.87
47716;BME280;33476;50.984;3.538;2022-07-11T03:56:10;102461.69;;;18.89;58.74
47716;BME280;33476;50.984;3.538;2022-07-11T03:58:35;102461.69;;;18.89;58.80
47716;BME280;33476;50.984;3.538;2022-07-11T04:01:00;102459.13;;;18.88;59.12
47716;BME280;33476;50.984;3.538;2022-07-11T04:03:26;102460.06;;;18.87;59.03
47716;BME280;33476;50.984;3.538;2022-07-11T04:05:51;102456.38;;;18.89;59.25
47716;BME280;33476;50.984;3.538;2022-07-11T04:08:17;102459.03;;;18.89;59.50
47716;BME280;33476;50.984;3.538;2022-07-11T04:10:42;102457.25;;;18.90;59.40
47716;BME280;33476;50.984;3.538;2022-07-11T04:13:07;102460.84;;;18.89;59.35
47716;BME280;33476;50.984;3.538;2022-07-11T04:15:33;102465.19;;;18.90;59.35
47716;BME280;33476;50.984;3.538;2022-07-11T04:17:58;102461.69;;;18.89;59.49
47716;BME280;33476;50.984;3.538;2022-07-11T04:20:24;102459.13;;;18.88;59.85
47716;BME280;33476;50.984;3.538;2022-07-11T04:22:49;102458.84;;;18.92;59.91
47716;BME280;33476;50.984;3.538;2022-07-11T04:25:14;102465.94;;;18.92;60.06
47716;BME280;33476;50.984;3.538;2022-07-11T04:27:40;102472.00;;;18.94;59.78
47716;BME280;33476;50.984;3.538;2022-07-11T04:30:05;102465.94;;;18.92;59.70
47716;BME280;33476;50.984;3.538;2022-07-11T04:32:31;102469.44;;;18.92;60.06
47716;BME280;33476;50.984;3.538;2022-07-11T04:34:56;102465.75;;;18.95;60.36
47716;BME280;33476;50.984;3.538;2022-07-11T04:37:22;102463.03;;;18.96;60.31
47716;BME280;33476;50.984;3.538;2022-07-11T04:39:47;102465.25;;;19.04;60.15
47716;BME280;33476;50.984;3.538;2022-07-11T04:42:13;102462.41;;;19.07;59.95
47716;BME280;33476;50.984;3.538;2022-07-11T04:44:39;102464.88;;;19.10;59.89
47716;BME280;33476;50.984;3.538;2022-07-11T04:47:04;102465.72;;;19.11;59.98
47716;BME280;33476;50.984;3.538;2022-07-11T04:49:29;102469.22;;;19.11;60.08
47716;BME280;33476;50.984;3.538;2022-07-11T04:51:55;102466.31;;;19.16;60.07
47716;BME280;33476;50.984;3.538;2022-07-11T04:54:22;102466.13;;;19.19;60.05
47716;BME280;33476;50.984;3.538;2022-07-11T04:56:47;102464.44;;;19.18;60.28
47716;BME280;33476;50.984;3.538;2022-07-11T04:59:13;102471.19;;;19.23;60.22
47716;BME280;33476;50.984;3.538;2022-07-11T05:01:38;102467.50;;;19.26;60.19
47716;BME280;33476;50.984;3.538;2022-07-11T05:04:04;102469.28;;;19.25;60.68
47716;BME280;33476;50.984;3.538;2022-07-11T05:06:29;102472.63;;;19.29;60.54
47716;BME280;33476;50.984;3.538;2022-07-11T05:08:54;102477.84;;;19.30;60.77
47716;BME280;33476;50.984;3.538;2022-07-11T05:11:20;102478.59;;;19.32;61.11
47716;BME280;33476;50.984;3.538;2022-07-11T05:13:46;102480.19;;;19.35;61.21
47716;BME280;33476;50.984;3.538;2022-07-11T05:16:12;102476.53;;;19.38;61.37
47716;BME280;33476;50.984;3.538;2022-07-11T05:18:38;102479.84;;;19.41;61.53
47716;BME280;33476;50.984;3.538;2022-07-11T05:21:04;102481.38;;;19.45;61.68
47716;BME280;33476;50.984;3.538;2022-07-11T05:23:29;102480.06;;;19.52;61.66
47716;BME280;33476;50.984;3.538;2022-07-11T05:25:54;102489.47;;;19.58;61.81
47716;BME280;33476;50.984;3.538;2022-07-11T05:28:20;102499.72;;;19.64;62.13
47716;BME280;33476;50.984;3.538;2022-07-11T05:30:45;102502.88;;;19.71;62.02
47716;BME280;33476;50.984;3.538;2022-07-11T05:33:10;102491.88;;;19.77;62.17
47716;BME280;33476;50.984;3.538;2022-07-11T05:35:36;102489.72;;;19.83;62.56
47716;BME280;33476;50.984;3.538;2022-07-11T05:38:01;102493.06;;;19.87;62.83
47716;BME280;33476;50.984;3.538;2022-07-11T05:40:26;102492.75;;;19.91;62.66
47716;BME280;33476;50.984;3.538;2022-07-11T05:42:52;102489.75;;;19.98;62.96
47716;BME280;33476;50.984;3.538;2022-07-11T05:45:17;102484.81;;;20.06;63.45
47716;BME280;33476;50.984;3.538;2022-07-11T05:47:42;102487.16;;;20.10;63.28
47716;BME280;33476;50.984;3.538;2022-07-11T05:50:08;102480.84;;;20.13;63.57
47716;BME280;33476;50.984;3.538;2022-07-11T05:52:33;102490.41;;;20.15;63.37
47716;BME280;33476;50.984;3.538;2022-07-11T05:54:59;102484.81;;;20.20;63.61
47716;BME280;33476;50.984;3.538;2022-07-11T05:57:24;102483.66;;;20.24;63.71
47716;BME280;33476;50.984;3.538;2022-07-11T05:59:50;102485.00;;;20.31;63.64
47716;BME280;33476;50.984;3.538;2022-07-11T06:02:16;102491.63;;;20.38;63.82
47716;BME280;33476;50.984;3.538;2022-07-11T06:04:41;102489.91;;;20.52;63.62
47716;BME280;33476;50.984;3.538;2022-07-11T06:07:08;102492.19;;;20.58;63.61
47716;BME280;33476;50.984;3.538;2022-07-11T06:09:34;102491.06;;;20.62;63.55
47716;BME280;33476;50.984;3.538;2022-07-11T06:12:00;102491.50;;;20.68;63.60
47716;BME280;33476;50.984;3.538;2022-07-11T06:14:25;102485.63;;;20.78;63.72
47716;BME280;33476;50.984;3.538;2022-07-11T06:16:51;102490.22;;;20.88;63.41
47716;BME280;33476;50.984;3.538;2022-07-11T06:19:16;102496.44;;;21.01;63.16
47716;BME280;33476;50.984;3.538;2022-07-11T06:21:42;102501.91;;;21.13;62.92
47716;BME280;33476;50.984;3.538;2022-07-11T06:24:07;102492.47;;;21.21;62.80
47716;BME280;33476;50.984;3.538;2022-07-11T06:26:33;102489.81;;;21.21;63.00
47716;BME280;33476;50.984;3.538;2022-07-11T06:28:58;102489.72;;;21.23;62.64
47716;BME280;33476;50.984;3.538;2022-07-11T06:31:24;102495.28;;;21.33;62.71
47716;BME280;33476;50.984;3.538;2022-07-11T06:33:49;102500.00;;;21.42;62.68
47716;BME280;33476;50.984;3.538;2022-07-11T06:36:23;102496.09;;;21.47;62.67
47716;BME280;33476;50.984;3.538;2022-07-11T06:38:52;102495.22;;;21.47;62.74
47716;BME280;33476;50.984;3.538;2022-07-11T06:41:18;102485.78;;;21.55;62.67
47716;BME280;33476;50.984;3.538;2022-07-11T06:43:43;102498.22;;;21.68;62.42
47716;BME280;33476;50.984;3.538;2022-07-11T06:46:09;102497.63;;;21.77;61.99
47716;BME280;33476;50.984;3.538;2022-07-11T06:48:35;102494.31;;;21.86;61.67
47716;BME280;33476;50.984;3.538;2022-07-11T06:51:00;102496.97;;;21.99;61.84
47716;BME280;33476;50.984;3.538;2022-07-11T06:53:25;102500.63;;;22.10;61.53
47716;BME280;33476;50.984;3.538;2022-07-11T06:55:51;102495.50;;;22.20;61.33
47716;BME280;33476;50.984;3.538;2022-07-11T06:58:16;102486.34;;;22.24;60.82
47716;BME280;33476;50.984;3.538;2022-07-11T07:01:05;102490.63;;;22.27;60.51
47716;BME280;33476;50.984;3.538;2022-07-11T07:03:34;102480.16;;;22.36;60.57
47716;BME280;33476;50.984;3.538;2022-07-11T07:06:00;102481.50;;;22.42;60.66
47716;BME280;33476;50.984;3.538;2022-07-11T07:08:27;102482.22;;;22.57;60.58
47716;BME280;33476;50.984;3.538;2022-07-11T07:10:53;102477.72;;;22.70;60.49
47716;BME280;33476;50.984;3.538;2022-07-11T07:13:19;102476.69;;;22.84;59.89
47716;BME280;33476;50.984;3.538;2022-07-11T07:15:48;102477.97;;;22.91;60.16
47716;BME280;33476;50.984;3.538;2022-07-11T07:18:14;102480.31;;;22.95;59.38
47716;BME280;33476;50.984;3.538;2022-07-11T07:20:39;102472.72;;;23.02;59.06
47716;BME280;33476;50.984;3.538;2022-07-11T07:23:05;102475.50;;;23.01;58.29
47716;BME280;33476;50.984;3.538;2022-07-11T07:25:30;102475.81;;;22.96;58.50
47716;BME280;33476;50.984;3.538;2022-07-11T07:27:55;102475.69;;;22.97;58.48
47716;BME280;33476;50.984;3.538;2022-07-11T07:30:21;102470.44;;;23.09;58.41
47716;BME280;33476;50.984;3.538;2022-07-11T07:32:46;102469.25;;;23.24;57.68
47716;BME280;33476;50.984;3.538;2022-07-11T07:35:12;102462.50;;;23.31;57.10
47716;BME280;33476;50.984;3.538;2022-07-11T07:37:37;102461.09;;;23.38;56.50
47716;BME280;33476;50.984;3.538;2022-07-11T07:40:03;102470.56;;;23.42;56.51
47716;BME280;33476;50.984;3.538;2022-07-11T07:42:28;102474.56;;;23.48;56.81
47716;BME280;33476;50.984;3.538;2022-07-11T07:44:54;102475.06;;;23.53;56.68
47716;BME280;33476;50.984;3.538;2022-07-11T07:47:19;102476.09;;;23.63;55.66
47716;BME280;33476;50.984;3.538;2022-07-11T07:49:45;102482.06;;;23.78;55.93
47716;BME280;33476;50.984;3.538;2022-07-11T07:52:10;102492.25;;;23.95;55.52
47716;BME280;33476;50.984;3.538;2022-07-11T07:54:36;102487.16;;;24.03;53.42
47716;BME280;33476;50.984;3.538;2022-07-11T07:57:01;102481.72;;;24.05;53.43
47716;BME280;33476;50.984;3.538;2022-07-11T07:59:27;102486.91;;;24.06;53.98
47716;BME280;33476;50.984;3.538;2022-07-11T08:01:52;102490.09;;;24.12;53.61
47716;BME280;33476;50.984;3.538;2022-07-11T08:04:17;102499.19;;;24.20;53.29
47716;BME280;33476;50.984;3.538;2022-07-11T08:06:43;102501.13;;;24.29;51.80
47716;BME280;33476;50.984;3.538;2022-07-11T08:09:09;102500.69;;;24.35;51.76
47716;BME280;33476;50.984;3.538;2022-07-11T08:11:34;102498.25;;;24.44;52.95
47716;BME280;33476;50.984;3.538;2022-07-11T08:14:01;102493.72;;;24.55;51.57
47716;BME280;33476;50.984;3.538;2022-07-11T08:16:29;102496.03;;;24.60;51.71
47716;BME280;33476;50.984;3.538;2022-07-11T08:18:55;102488.38;;;24.67;52.29
47716;BME280;33476;50.984;3.538;2022-07-11T08:21:21;102489.06;;;24.80;52.31
47716;BME280;33476;50.984;3.538;2022-07-11T08:23:46;102483.31;;;24.96;51.30
47716;BME280;33476;50.984;3.538;2022-07-11T08:26:12;102481.09;;;25.01;50.94
47716;BME280;33476;50.984;3.538;2022-07-11T08:28:37;102489.69;;;25.15;51.30
47716;BME280;33476;50.984;3.538;2022-07-11T08:31:03;102483.59;;;25.25;50.78
47716;BME280;33476;50.984;3.538;2022-07-11T08:33:28;102486.56;;;25.31;50.98
47716;BME280;33476;50.984;3.538;2022-07-11T08:35:53;102492.25;;;25.38;50.85
47716;BME280;33476;50.984;3.538;2022-07-11T08:38:19;102485.94;;;25.39;50.42
47716;BME280;33476;50.984;3.538;2022-07-11T08:40:44;102482.28;;;25.40;50.28
47716;BME280;33476;50.984;3.538;2022-07-11T08:43:14;102478.88;;;25.38;49.96
47716;BME280;33476;50.984;3.538;2022-07-11T08:45:40;102473.03;;;25.44;49.55
47716;BME280;33476;50.984;3.538;2022-07-11T08:48:07;102476.28;;;25.47;48.66
47716;BME280;33476;50.984;3.538;2022-07-11T08:50:34;102473.56;;;25.59;48.75
47716;BME280;33476;50.984;3.538;2022-07-11T08:53:00;102469.22;;;25.67;48.35
47716;BME280;33476;50.984;3.538;2022-07-11T08:55:27;102469.84;;;25.71;48.19
47716;BME280;33476;50.984;3.538;2022-07-11T08:57:53;102472.56;;;25.81;48.75
47716;BME280;33476;50.984;3.538;2022-07-11T09:00:18;102473.06;;;25.95;48.35
47716;BME280;33476;50.984;3.538;2022-07-11T09:02:45;102470.31;;;26.07;48.34
47716;BME280;33476;50.984;3.538;2022-07-11T09:05:11;102464.72;;;26.19;47.47
47716;BME280;33476;50.984;3.538;2022-07-11T09:07:47;102468.69;;;26.25;47.37
47716;BME280;33476;50.984;3.538;2022-07-11T09:10:17;102466.88;;;26.35;47.30
47716;BME280;33476;50.984;3.538;2022-07-11T09:13:05;102459.69;;;26.36;46.85
47716;BME280;33476;50.984;3.538;2022-07-11T09:15:45;102466.38;;;26.41;45.64
47716;BME280;33476;50.984;3.538;2022-07-11T09:18:31;102455.91;;;26.48;45.48
47716;BME280;33476;50.984;3.538;2022-07-11T09:21:14;102459.91;;;26.53;44.94
47716;BME280;33476;50.984;3.538;2022-07-11T09:24:01;102444.13;;;26.70;44.36
47716;BME280;33476;50.984;3.538;2022-07-11T09:26:48;102441.72;;;26.76;44.91
47716;BME280;33476;50.984;3.538;2022-07-11T09:29:18;102442.03;;;26.83;45.47
47716;BME280;33476;50.984;3.538;2022-07-11T09:31:47;102443.28;;;26.88;44.86
47716;BME280;33476;50.984;3.538;2022-07-11T09:34:14;102452.59;;;26.94;45.28
47716;BME280;33476;50.984;3.538;2022-07-11T09:39:07;102454.59;;;27.21;45.25
47716;BME280;33476;50.984;3.538;2022-07-11T09:41:33;102454.19;;;27.26;44.88
47716;BME280;33476;50.984;3.538;2022-07-11T09:44:19;102449.81;;;27.25;44.44
47716;BME280;33476;50.984;3.538;2022-07-11T09:46:47;102455.44;;;27.31;43.51
47716;BME280;33476;50.984;3.538;2022-07-11T09:49:14;102454.31;;;27.34;43.65
47716;BME280;33476;50.984;3.538;2022-07-11T09:51:40;102457.50;;;27.47;42.94
47716;BME280;33476;50.984;3.538;2022-07-11T09:54:07;102466.69;;;27.54;43.11
47716;BME280;33476;50.984;3.538;2022-07-11T09:56:43;102453.84;;;27.58;42.69
47716;BME280;33476;50.984;3.538;2022-07-11T09:59:10;102459.06;;;27.59;42.52
47716;BME280;33476;50.984;3.538;2022-07-11T10:01:36;102461.88;;;27.58;43.28
47716;BME280;33476;50.984;3.538;2022-07-11T10:04:04;102451.88;;;27.50;42.82
47716;BME280;33476;50.984;3.538;2022-07-11T10:06:30;102454.00;;;27.56;42.83
47716;BME280;33476;50.984;3.538;2022-07-11T10:08:55;102450.84;;;27.61;42.68
47716;BME280;33476;50.984;3.538;2022-07-11T10:11:21;102446.19;;;27.63;42.66
47716;BME280;33476;50.984;3.538;2022-07-11T10:13:47;102452.38;;;27.63;43.17
47716;BME280;33476;50.984;3.538;2022-07-11T10:24:43;102457.41;;;27.95;42.86
47716;BME280;33476;50.984;3.538;2022-07-11T10:27:22;102468.56;;;28.01;42.28
47716;BME280;33476;50.984;3.538;2022-07-11T10:29:52;102472.63;;;28.05;42.48
47716;BME280;33476;50.984;3.538;2022-07-11T10:32:19;102461.03;;;28.04;42.04
47716;BME280;33476;50.984;3.538;2022-07-11T10:34:45;102465.72;;;28.02;42.77
47716;BME280;33476;50.984;3.538;2022-07-11T10:37:13;102465.25;;;28.16;42.94
47716;BME280;33476;50.984;3.538;2022-07-11T10:39:39;102464.50;;;28.24;41.40
47716;BME280;33476;50.984;3.538;2022-07-11T10:42:19;102467.88;;;28.26;41.95
47716;BME280;33476;50.984;3.538;2022-07-11T10:44:54;102468.56;;;28.28;41.12
47716;BME280;33476;50.984;3.538;2022-07-11T10:50:07;102472.38;;;28.35;41.84
47716;BME280;33476;50.984;3.538;2022-07-11T10:52:36;102464.81;;;28.48;41.61
47716;BME280;33476;50.984;3.538;2022-07-11T10:58:02;102466.03;;;28.54;41.07
47716;BME280;33476;50.984;3.538;2022-07-11T11:00:30;102465.28;;;28.62;41.63
47716;BME280;33476;50.984;3.538;2022-07-11T11:10:59;102465.16;;;28.63;41.22
47716;BME280;33476;50.984;3.538;2022-07-11T11:13:26;102453.75;;;28.69;41.00
47716;BME280;33476;50.984;3.538;2022-07-11T11:16:01;102460.13;;;28.68;40.88
47716;BME280;33476;50.984;3.538;2022-07-11T11:18:31;102453.84;;;28.77;41.07
47716;BME280;33476;50.984;3.538;2022-07-11T11:24:02;102458.56;;;28.93;40.80
47716;BME280;33476;50.984;3.538;2022-07-11T11:26:24;102451.63;;;29.08;40.64
47716;BME280;33476;50.984;3.538;2022-07-11T11:29:01;102449.72;;;29.01;40.40
47716;BME280;33476;50.984;3.538;2022-07-11T11:31:27;102445.66;;;28.97;41.06
47716;BME280;33476;50.984;3.538;2022-07-11T11:33:55;102441.25;;;28.96;40.62
47716;BME280;33476;50.984;3.538;2022-07-11T11:36:21;102438.97;;;29.01;40.31
47716;BME280;33476;50.984;3.538;2022-07-11T11:38:47;102437.66;;;29.05;39.94
47716;BME280;33476;50.984;3.538;2022-07-11T11:41:14;102438.41;;;29.15;40.46
47716;BME280;33476;50.984;3.538;2022-07-11T11:43:47;102444.88;;;29.22;40.87
47716;BME280;33476;50.984;3.538;2022-07-11T11:46:13;102432.41;;;29.21;39.54
47716;BME280;33476;50.984;3.538;2022-07-11T11:48:39;102435.09;;;29.21;39.54
47716;BME280;33476;50.984;3.538;2022-07-11T11:51:15;102428.56;;;29.24;39.96
47716;BME280;33476;50.984;3.538;2022-07-11T11:53:46;102433.66;;;29.35;40.10
47716;BME280;33476;50.984;3.538;2022-07-11T11:56:18;102434.56;;;29.44;39.70
47716;BME280;33476;50.984;3.538;2022-07-11T11:58:47;102440.91;;;29.34;38.22
47716;BME280;33476;50.984;3.538;2022-07-11T12:01:14;102436.47;;;29.25;38.09
47716;BME280;33476;50.984;3.538;2022-07-11T12:06:16;102427.03;;;29.21;38.26
47716;BME280;33476;50.984;3.538;2022-07-11T12:08:42;102428.22;;;29.27;38.43
47716;BME280;33476;50.984;3.538;2022-07-11T12:11:14;102428.63;;;29.32;37.79
47716;BME280;33476;50.984;3.538;2022-07-11T12:13:40;102421.09;;;29.18;37.82
47716;BME280;33476;50.984;3.538;2022-07-11T12:16:16;102427.81;;;29.14;39.16
47716;BME280;33476;50.984;3.538;2022-07-11T12:19:03;102420.22;;;29.35;38.02
47716;BME280;33476;50.984;3.538;2022-07-11T12:21:30;102425.91;;;29.50;38.15
47716;BME280;33476;50.984;3.538;2022-07-11T12:23:59;102419.22;;;29.62;38.18
47716;BME280;33476;50.984;3.538;2022-07-11T12:26:29;102416.81;;;29.85;37.86
47716;BME280;33476;50.984;3.538;2022-07-11T12:31:56;102416.97;;;29.83;37.41
47716;BME280;33476;50.984;3.538;2022-07-11T12:34:43;102416.09;;;29.75;36.97
47716;BME280;33476;50.984;3.538;2022-07-11T12:42:26;102410.38;;;29.78;36.89
47716;BME280;33476;50.984;3.538;2022-07-11T12:45:06;102404.19;;;29.85;36.78
47716;BME280;33476;50.984;3.538;2022-07-11T12:47:37;102401.38;;;29.95;36.63
47716;BME280;33476;50.984;3.538;2022-07-11T12:50:27;102403.72;;;29.90;36.75
47716;BME280;33476;50.984;3.538;2022-07-11T12:52:55;102392.75;;;29.83;36.73
47716;BME280;33476;50.984;3.538;2022-07-11T13:00:27;102387.88;;;29.87;36.80
47716;BME280;33476;50.984;3.538;2022-07-11T13:02:53;102385.66;;;29.82;37.14
47716;BME280;33476;50.984;3.538;2022-07-11T13:05:18;102385.88;;;29.89;37.77
47716;BME280;33476;50.984;3.538;2022-07-11T13:07:44;102378.47;;;29.91;36.10
47716;BME280;33476;50.984;3.538;2022-07-11T13:10:28;102377.59;;;29.82;37.59
47716;BME280;33476;50.984;3.538;2022-07-11T13:13:13;102384.88;;;29.90;37.05
47716;BME280;33476;50.984;3.538;2022-07-11T13:15:38;102378.66;;;29.98;37.64
47716;BME280;33476;50.984;3.538;2022-07-11T13:18:04;102375.81;;;29.99;36.15
47716;BME280;33476;50.984;3.538;2022-07-11T13:20:30;102372.56;;;29.87;35.95
47716;BME280;33476;50.984;3.538;2022-07-11T13:22:57;102367.81;;;29.81;36.38
47716;BME280;33476;50.984;3.538;2022-07-11T13:25:23;102376.41;;;29.85;36.26
47716;BME280;33476;50.984;3.538;2022-07-11T13:27:49;102377.28;;;29.93;36.81
47716;BME280;33476;50.984;3.538;2022-07-11T13:30:17;102378.50;;;29.99;35.83
47716;BME280;33476;50.984;3.538;2022-07-11T13:32:45;102378.84;;;30.04;36.39
47716;BME280;33476;50.984;3.538;2022-07-11T13:35:12;102383.53;;;30.02;36.68